Palmyra, Illinois
Current Conditions -  °F | °C
As of 7:15 PM on Sunday 23 Nov 2014 (Local Time) from K3LF Reporting Station
Drizzle Drizzle  
Wind Chill: 50°   Ceiling: 300
Heat Index: 50°   Visibility: 3mi
Dew Point: 49°   Wind: 7mph
Humidity: 95%   Direction: 160°SSE
Pressure: 29.27"   Gusts: NA
Location:  39.43°N, 90°W
Report Text: K3LF 240115Z AUTO 16006KT 3SM -DZ OVC003 10/09 A2927 RMK AO2 T01000092
Loading
Personal Weather Stations






























Interactive Weather Map New forecast layout! Learn more

10-Day Weather Forecast

Advertisements
Track Severe Weather on mobile